Terminal Aerodrome Forecast
Issued by NWS

Home | Current Version | Previous Version | Text Only | Print | Product List | Glossary On
Versions: 1 2 3 4 5 6 7 8 9 10 11 12 13 14
000
FTUS46 KSTO 301731
TAFSAC
TAF
KSAC 301731Z 3018/3118 VRB04KT P6SM FEW250
     FM302000 29007KT P6SM SKC
     FM310100 24007KT P6SM SKC
     FM310500 VRB04KT P6SM SKC=

USA.gov is the U.S. government's official web portal to all federal, state and local government web resources and services.